Time;durP1;ratioP1;P1;durP2;ratioP2;P2;SDS_P1;SDS_P2;PMS_P1;PMS_P2;Temp;Humidity;BMP_temperature;BMP_pressure;BME280_temperature;BME280_humidity;BME280_pressure;Samples;Min_cycle;Max_cycle;Signal;HPM_P1;HPM_P2
2021/08/18 00:00:43;;;;;;;0.10;0.10;;;14.10;99.90;;;;;;5023620;28;20032;-93
2021/08/18 00:03:10;;;;;;;0.20;0.20;;;14.30;99.90;;;;;;5023847;28;20025;-95
2021/08/18 00:05:39;;;;;;;0.30;0.30;;;14.40;99.90;;;;;;5023729;28;20137;-93
2021/08/18 00:08:09;;;;;;;0.20;0.20;;;14.50;99.90;;;;;;5023730;28;20021;-93
2021/08/18 00:10:39;;;;;;;0.68;0.68;;;14.40;99.90;;;;;;5023635;28;20052;-93
2021/08/18 00:13:08;;;;;;;0.22;0.22;;;14.20;99.90;;;;;;5023757;28;20033;-92
2021/08/18 00:15:35;;;;;;;0.63;0.43;;;14.20;99.90;;;;;;5023615;28;20089;-94
2021/08/18 00:18:03;;;;;;;0.20;0.20;;;14.10;99.90;;;;;;5023471;28;20014;-94
2021/08/18 00:20:30;;;;;;;0.15;0.15;;;14.20;99.90;;;;;;5023647;28;20024;-94
2021/08/18 00:22:56;;;;;;;0.10;0.10;;;14.30;99.90;;;;;;5023661;28;20013;-93
2021/08/18 00:25:24;;;;;;;0.20;0.20;;;14.40;99.90;;;;;;5023640;28;20044;-93
2021/08/18 00:27:50;;;;;;;0.10;0.10;;;14.50;99.90;;;;;;5025557;28;20013;-93
2021/08/18 00:30:16;;;;;;;0.32;0.32;;;14.60;99.90;;;;;;5027338;28;20152;-93
2021/08/18 00:32:42;;;;;;;0.20;0.20;;;14.50;99.90;;;;;;5027554;28;20014;-94
2021/08/18 00:35:13;;;;;;;0.55;0.55;;;14.40;99.90;;;;;;5027390;28;20025;-93
2021/08/18 00:37:46;;;;;;;1.10;1.10;;;14.40;99.90;;;;;;5027624;28;20041;-95
2021/08/18 00:40:19;;;;;;;1.65;1.50;;;14.20;99.90;;;;;;5028110;28;20018;-94
2021/08/18 00:42:46;;;;;;;0.10;0.10;;;14.20;99.90;;;;;;5027230;28;20020;-94
2021/08/18 00:45:14;;;;;;;0.20;0.20;;;14.20;99.90;;;;;;5027473;28;20021;-94
2021/08/18 00:47:45;;;;;;;1.20;1.10;;;14.30;99.90;;;;;;5027105;28;20009;-95
2021/08/18 00:50:19;;;;;;;0.20;0.20;;;14.50;99.90;;;;;;5027062;28;20052;-93
2021/08/18 00:52:46;;;;;;;0.93;0.93;;;14.20;99.90;;;;;;5027014;28;20014;-93
2021/08/18 00:55:14;;;;;;;0.47;0.47;;;14.20;99.90;;;;;;5027048;28;20056;-93
2021/08/18 00:57:41;;;;;;;3.03;0.98;;;14.30;99.90;;;;;;5026829;28;20025;-94
2021/08/18 01:00:12;;;;;;;0.20;0.20;;;14.30;99.90;;;;;;5027103;28;20024;-94
2021/08/18 01:02:45;;;;;;;3.08;1.23;;;14.40;99.90;;;;;;5026861;28;20034;-94
2021/08/18 01:05:22;;;;;;;0.10;0.10;;;14.20;99.90;;;;;;5026999;28;20064;-93
2021/08/18 01:07:57;;;;;;;0.20;0.20;;;14.20;99.90;;;;;;5026613;28;20096;-93
2021/08/18 01:10:30;;;;;;;0.73;0.73;;;14.00;99.90;;;;;;5027016;28;20021;-93
2021/08/18 01:12:56;;;;;;;0.10;0.10;;;13.90;99.90;;;;;;5026724;28;20018;-94
2021/08/18 01:15:24;;;;;;;0.20;0.20;;;13.90;99.90;;;;;;5026567;28;20034;-94
2021/08/18 01:17:53;;;;;;;0.10;0.10;;;14.00;99.90;;;;;;5026419;28;20029;-94
2021/08/18 01:20:32;;;;;;;0.63;0.63;;;14.00;99.90;;;;;;5026609;28;20017;-94
2021/08/18 01:23:11;;;;;;;;;;;;;;;;;;;;;
2021/08/18 01:25:40;;;;;;;0.40;0.40;;;13.90;99.90;;;;;;5042824;28;20013;-94
2021/08/18 01:28:07;;;;;;;0.20;0.20;;;13.90;99.90;;;;;;5026114;28;20021;-94
2021/08/18 01:30:34;;;;;;;0.60;0.60;;;14.00;99.90;;;;;;5026003;28;20028;-93
2021/08/18 01:33:07;;;;;;;0.63;0.63;;;14.00;99.90;;;;;;5026591;28;20021;-93
2021/08/18 01:35:40;;;;;;;2.47;0.75;;;14.10;99.90;;;;;;5026654;28;20050;-94
2021/08/18 01:38:09;;;;;;;0.10;0.10;;;14.00;99.90;;;;;;5025684;28;20053;-94
2021/08/18 01:40:35;;;;;;;0.10;0.10;;;13.90;99.90;;;;;;5026125;28;20078;-94
2021/08/18 01:43:02;;;;;;;0.10;0.10;;;13.90;99.90;;;;;;5026187;28;20034;-94
2021/08/18 01:45:35;;;;;;;0.30;0.30;;;14.00;99.90;;;;;;5026159;28;20085;-94
2021/08/18 01:48:08;;;;;;;0.20;0.20;;;14.10;99.90;;;;;;5025846;28;20013;-94
2021/08/18 01:50:34;;;;;;;0.47;0.30;;;14.10;99.90;;;;;;5016345;23;20129;-75
2021/08/18 01:53:00;;;;;;;0.20;0.20;;;14.20;99.90;;;;;;5013936;28;20415;-74
2021/08/18 01:55:27;;;;;;;0.20;0.20;;;14.20;99.90;;;;;;5014081;28;20059;-74
2021/08/18 01:57:53;;;;;;;2.70;1.55;;;14.00;99.90;;;;;;4996318;28;20029;-74
2021/08/18 02:00:20;;;;;;;0.10;0.10;;;13.70;99.90;;;;;;5014106;28;20026;-74
2021/08/18 02:02:45;;;;;;;0.20;0.20;;;13.40;99.90;;;;;;5012901;28;20429;-74
2021/08/18 02:05:12;;;;;;;2.22;1.08;;;13.30;99.90;;;;;;5013825;28;20033;-74
2021/08/18 02:07:38;;;;;;;1.17;0.98;;;13.30;99.90;;;;;;5012544;28;20057;-75
2021/08/18 02:10:11;;;;;;;3.03;2.15;;;13.10;99.90;;;;;;5013733;28;20454;-74
2021/08/18 02:12:38;;;;;;;4.75;0.88;;;12.90;99.90;;;;;;4996322;28;20141;-74
2021/08/18 02:15:17;;;;;;;0.30;0.30;;;12.70;99.90;;;;;;5012332;28;20394;-74
2021/08/18 02:17:43;;;;;;;1.92;1.70;;;12.80;99.90;;;;;;5013647;28;20029;-74
2021/08/18 02:20:15;;;;;;;0.65;0.65;;;12.80;99.90;;;;;;5013693;28;20030;-74
2021/08/18 02:22:41;;;;;;;3.72;3.40;;;12.90;99.90;;;;;;5013741;28;20052;-74
2021/08/18 02:25:08;;;;;;;1.23;1.23;;;13.10;99.90;;;;;;5013589;28;20091;-74
2021/08/18 02:27:34;;;;;;;2.00;1.20;;;12.90;99.90;;;;;;5013572;28;20030;-74
2021/08/18 02:30:00;;;;;;;0.95;0.93;;;12.70;99.90;;;;;;5011751;28;20028;-74
2021/08/18 02:32:26;;;;;;;1.75;1.30;;;12.70;99.90;;;;;;5013534;28;20100;-74
2021/08/18 02:34:52;;;;;;;6.00;2.30;;;12.60;99.90;;;;;;5013232;28;20156;-74
2021/08/18 02:37:17;;;;;;;3.15;0.90;;;12.50;99.90;;;;;;5012033;28;20025;-74
2021/08/18 02:39:43;;;;;;;5.05;1.63;;;12.40;99.90;;;;;;5013114;28;20018;-74
2021/08/18 02:42:09;;;;;;;1.80;1.38;;;12.40;99.90;;;;;;5012091;28;20117;-74
2021/08/18 02:44:35;;;;;;;7.93;1.42;;;12.40;99.90;;;;;;5013252;28;20101;-74
2021/08/18 02:47:01;;;;;;;1.15;1.00;;;12.40;99.90;;;;;;5012049;28;20030;-76
2021/08/18 02:49:27;;;;;;;6.70;2.50;;;12.50;99.90;;;;;;5011033;28;20053;-76
2021/08/18 02:51:52;;;;;;;1.02;0.20;;;12.40;99.90;;;;;;5013102;28;20030;-77
2021/08/18 02:54:18;;;;;;;2.42;1.55;;;12.40;99.90;;;;;;5012232;28;20430;-76
2021/08/18 02:56:44;;;;;;;0.60;0.60;;;12.40;99.90;;;;;;5011639;28;20060;-77
2021/08/18 02:59:11;;;;;;;7.75;3.72;;;12.60;99.90;;;;;;5011532;28;20092;-77
2021/08/18 03:01:38;;;;;;;0.55;0.55;;;12.50;99.90;;;;;;5011654;28;20401;-76
2021/08/18 03:04:04;;;;;;;9.75;2.58;;;12.40;99.90;;;;;;5011402;28;20088;-75
2021/08/18 03:06:30;;;;;;;0.57;0.57;;;12.40;99.90;;;;;;5012771;28;20033;-74
2021/08/18 03:08:55;;;;;;;1.15;1.08;;;12.30;99.90;;;;;;5012685;28;20321;-74
2021/08/18 03:11:21;;;;;;;1.23;0.90;;;12.30;99.90;;;;;;5011412;28;20033;-74
2021/08/18 03:13:47;;;;;;;2.10;1.10;;;12.40;99.90;;;;;;5011454;28;20112;-74
2021/08/18 03:16:13;;;;;;;1.92;0.98;;;12.30;99.90;;;;;;5011235;28;20489;-74
2021/08/18 03:18:38;;;;;;;0.57;0.57;;;12.40;99.90;;;;;;4995029;28;20022;-74
2021/08/18 03:21:04;;;;;;;1.20;1.17;;;12.50;99.90;;;;;;5011340;28;20481;-74
2021/08/18 03:23:30;;;;;;;0.28;0.28;;;12.60;99.90;;;;;;5012677;28;20022;-74
2021/08/18 03:25:56;;;;;;;1.35;0.30;;;12.60;99.90;;;;;;5011256;28;20401;-74
2021/08/18 03:28:21;;;;;;;0.95;0.88;;;12.70;99.90;;;;;;5012371;28;20046;-74
2021/08/18 03:30:47;;;;;;;3.83;1.25;;;12.80;99.90;;;;;;5012248;28;20026;-74
2021/08/18 03:33:13;;;;;;;0.40;0.40;;;12.80;99.90;;;;;;5012416;28;20429;-74
2021/08/18 03:35:38;;;;;;;4.80;0.90;;;12.80;99.90;;;;;;5011067;28;20385;-74
2021/08/18 03:38:04;;;;;;;0.20;0.20;;;12.80;99.90;;;;;;5011000;28;20026;-74
2021/08/18 03:40:30;;;;;;;0.20;0.20;;;12.80;99.90;;;;;;5010945;28;20022;-74
2021/08/18 03:42:56;;;;;;;0.20;0.20;;;13.00;99.90;;;;;;5012301;28;20022;-74
2021/08/18 03:45:22;;;;;;;0.15;0.15;;;12.90;99.90;;;;;;5012324;28;20029;-75
2021/08/18 03:47:47;;;;;;;4.78;1.25;;;12.80;99.90;;;;;;5012034;28;20393;-74
2021/08/18 03:50:13;;;;;;;2.05;1.08;;;12.80;99.90;;;;;;5012378;28;20485;-74
2021/08/18 03:52:41;;;;;;;1.73;1.48;;;12.70;99.90;;;;;;5012138;28;20029;-74
2021/08/18 03:55:08;;;;;;;0.25;0.25;;;12.70;99.90;;;;;;5010666;28;20033;-74
2021/08/18 03:57:34;;;;;;;1.17;0.45;;;12.60;99.90;;;;;;5010975;28;20021;-74
2021/08/18 03:59:59;;;;;;;4.47;1.88;;;12.60;99.90;;;;;;5010707;28;20386;-74
2021/08/18 04:02:26;;;;;;;0.88;0.50;;;12.60;99.90;;;;;;4994320;28;20536;-74
2021/08/18 04:04:52;;;;;;;0.38;0.38;;;12.60;99.90;;;;;;5011961;28;20044;-74
2021/08/18 04:07:18;;;;;;;0.90;0.88;;;12.60;99.90;;;;;;5010647;28;20037;-75
2021/08/18 04:09:43;;;;;;;0.50;0.50;;;12.90;99.90;;;;;;5011845;28;20022;-75
2021/08/18 04:12:09;;;;;;;1.55;1.45;;;12.90;99.90;;;;;;4994246;28;20022;-74
2021/08/18 04:14:35;;;;;;;3.65;1.55;;;13.00;99.90;;;;;;5011911;28;20041;-74
2021/08/18 04:17:01;;;;;;;0.73;0.73;;;12.80;99.90;;;;;;5010500;28;20029;-74
2021/08/18 04:19:27;;;;;;;1.08;1.02;;;12.80;99.90;;;;;;5010560;28;20470;-74
2021/08/18 04:21:53;;;;;;;2.15;1.95;;;12.80;99.90;;;;;;5011758;28;20057;-74
2021/08/18 04:24:18;;;;;;;10.07;3.88;;;12.70;99.90;;;;;;5011712;28;20109;-74
2021/08/18 04:26:44;;;;;;;5.47;2.05;;;12.60;99.90;;;;;;5012004;28;20088;-74
2021/08/18 04:29:10;;;;;;;1.40;1.30;;;12.50;99.90;;;;;;5010283;28;20088;-74
2021/08/18 04:31:36;;;;;;;1.40;0.65;;;12.50;99.90;;;;;;5011491;28;20056;-74
2021/08/18 04:34:02;;;;;;;0.70;0.30;;;12.60;99.90;;;;;;5010165;28;20121;-74
2021/08/18 04:36:27;;;;;;;1.00;0.80;;;12.60;99.90;;;;;;5010354;28;20124;-74
2021/08/18 04:38:53;;;;;;;3.28;1.60;;;12.80;99.90;;;;;;5010193;28;20060;-74
2021/08/18 04:41:19;;;;;;;1.52;1.42;;;12.80;99.90;;;;;;5011719;28;20052;-74
2021/08/18 04:43:45;;;;;;;0.63;0.63;;;12.80;99.90;;;;;;5010398;28;20018;-74
2021/08/18 04:46:10;;;;;;;0.17;0.17;;;12.90;99.90;;;;;;4993910;28;20398;-77
2021/08/18 04:48:36;;;;;;;3.33;1.88;;;12.90;99.90;;;;;;5011379;28;20037;-74
2021/08/18 04:51:02;;;;;;;1.77;1.38;;;12.90;99.90;;;;;;5011376;28;20049;-74
2021/08/18 04:53:28;;;;;;;2.15;1.40;;;12.80;99.90;;;;;;5010362;28;20096;-74
2021/08/18 04:55:54;;;;;;;2.13;1.05;;;12.80;99.90;;;;;;5009949;28;20386;-74
2021/08/18 04:58:20;;;;;;;1.35;1.20;;;12.70;99.90;;;;;;5008088;28;20022;-74
2021/08/18 05:00:46;;;;;;;3.75;1.98;;;12.70;99.90;;;;;;5010189;28;20064;-74
2021/08/18 05:03:15;;;;;;;3.25;1.38;;;12.70;99.90;;;;;;5009997;28;20077;-74
2021/08/18 05:05:41;;;;;;;0.55;0.35;;;12.70;99.90;;;;;;5010261;28;20026;-74
2021/08/18 05:08:07;;;;;;;4.18;2.70;;;12.80;99.90;;;;;;5009697;28;20105;-74
2021/08/18 05:10:37;;;;;;;1.63;1.40;;;12.90;99.90;;;;;;5010887;28;20058;-74
2021/08/18 05:13:04;;;;;;;0.47;0.47;;;12.80;99.90;;;;;;5004981;28;20037;-74
2021/08/18 05:15:30;;;;;;;9.32;2.47;;;12.90;99.90;;;;;;5013878;28;20097;-74
2021/08/18 05:17:57;;;;;;;2.58;1.77;;;12.90;99.90;;;;;;5013063;28;20029;-75
2021/08/18 05:20:23;;;;;;;0.28;0.28;;;12.90;99.90;;;;;;5013904;28;20026;-74
2021/08/18 05:22:50;;;;;;;13.45;0.85;;;13.10;99.90;;;;;;5013267;28;20436;-75
2021/08/18 05:25:17;;;;;;;0.20;0.20;;;13.20;99.90;;;;;;5013369;28;20021;-76
2021/08/18 05:27:43;;;;;;;0.77;0.77;;;13.20;99.90;;;;;;5011968;28;20105;-75
2021/08/18 05:30:12;;;;;;;0.50;0.50;;;13.20;99.90;;;;;;5013582;28;20080;-73
2021/08/18 05:32:39;;;;;;;1.45;1.35;;;13.40;99.90;;;;;;5013247;28;20030;-73
2021/08/18 05:35:07;;;;;;;0.10;0.10;;;13.60;99.90;;;;;;5015260;28;20034;-73
2021/08/18 05:37:33;;;;;;;1.02;0.93;;;13.70;99.90;;;;;;5012226;28;20033;-73
2021/08/18 05:39:58;;;;;;;1.33;1.25;;;13.80;99.90;;;;;;5011869;28;20030;-73
2021/08/18 05:42:24;;;;;;;0.95;0.63;;;13.80;99.90;;;;;;5015242;28;20107;-73
2021/08/18 05:44:50;;;;;;;3.25;2.95;;;13.90;99.90;;;;;;5012954;28;20034;-73
2021/08/18 05:47:16;;;;;;;0.90;0.90;;;13.90;99.90;;;;;;5012592;28;20053;-73
2021/08/18 05:49:42;;;;;;;0.30;0.30;;;13.90;99.90;;;;;;5012607;28;20056;-73
2021/08/18 05:52:08;;;;;;;0.30;0.30;;;13.90;99.90;;;;;;5010887;28;20088;-73
2021/08/18 05:54:34;;;;;;;4.35;1.13;;;14.00;99.90;;;;;;5011630;28;20033;-73
2021/08/18 05:57:00;;;;;;;3.58;2.67;;;14.00;99.90;;;;;;5013323;28;20079;-73
2021/08/18 05:59:26;;;;;;;1.88;1.17;;;14.10;99.90;;;;;;5012617;28;20432;-74
2021/08/18 06:01:52;;;;;;;7.85;2.90;;;14.00;99.90;;;;;;5011784;28;20030;-74
2021/08/18 06:04:17;;;;;;;2.30;2.08;;;13.90;99.90;;;;;;5012056;28;20022;-74
2021/08/18 06:06:43;;;;;;;0.95;0.95;;;13.80;99.90;;;;;;5011140;28;20033;-74
2021/08/18 06:09:09;;;;;;;4.15;2.15;;;13.90;99.90;;;;;;5010903;28;20022;-74
2021/08/18 06:11:35;;;;;;;0.20;0.20;;;13.90;99.90;;;;;;5012969;28;20075;-73
2021/08/18 06:14:00;;;;;;;0.10;0.10;;;13.90;99.90;;;;;;5010838;28;20394;-74
2021/08/18 06:16:26;;;;;;;5.57;1.20;;;14.00;99.90;;;;;;5011182;28;20034;-74
2021/08/18 06:18:52;;;;;;;3.92;2.20;;;14.00;99.90;;;;;;5011457;28;20054;-73
2021/08/18 06:21:18;;;;;;;0.45;0.45;;;14.10;99.90;;;;;;5010032;28;20470;-76
2021/08/18 06:23:46;;;;;;;2.58;1.52;;;14.00;99.90;;;;;;5010269;28;20025;-75
2021/08/18 06:26:12;;;;;;;1.55;1.17;;;13.80;99.90;;;;;;5011631;28;20152;-75
2021/08/18 06:28:38;;;;;;;2.45;0.90;;;13.90;99.90;;;;;;5010639;28;21301;-75
2021/08/18 06:31:04;;;;;;;0.57;0.57;;;13.90;99.90;;;;;;5011833;28;20496;-76
2021/08/18 06:33:30;;;;;;;1.45;1.10;;;13.90;99.90;;;;;;5011099;28;20065;-76
2021/08/18 06:35:56;;;;;;;0.20;0.20;;;13.80;99.90;;;;;;5010360;28;20038;-76
2021/08/18 06:38:22;;;;;;;8.02;2.13;;;13.80;99.90;;;;;;5014551;28;20022;-75
2021/08/18 06:40:47;;;;;;;0.22;0.22;;;13.90;99.90;;;;;;5015737;28;20020;-75
2021/08/18 06:43:13;;;;;;;4.28;2.28;;;13.90;99.90;;;;;;5010695;28;20026;-76
2021/08/18 06:45:39;;;;;;;1.77;1.02;;;13.90;99.90;;;;;;5010633;28;20029;-76
2021/08/18 06:48:05;;;;;;;1.55;1.10;;;13.90;99.90;;;;;;5011697;28;20030;-76
2021/08/18 06:50:31;;;;;;;4.88;2.03;;;14.00;99.90;;;;;;5010133;28;20041;-76
2021/08/18 06:52:57;;;;;;;0.45;0.45;;;14.00;99.90;;;;;;5010403;28;20453;-75
2021/08/18 06:55:23;;;;;;;0.45;0.45;;;14.00;99.90;;;;;;5009834;28;20034;-75
2021/08/18 06:57:49;;;;;;;0.63;0.63;;;14.20;99.90;;;;;;5010606;28;20033;-75
2021/08/18 07:00:15;;;;;;;0.82;0.82;;;14.50;99.90;;;;;;5012094;28;20022;-76
2021/08/18 07:02:46;;;;;;;0.10;0.10;;;14.50;99.90;;;;;;5010351;28;20022;-76
2021/08/18 07:05:13;;;;;;;0.13;0.13;;;14.60;99.90;;;;;;5005966;28;20038;-76
2021/08/18 07:07:39;;;;;;;0.82;0.77;;;14.60;99.90;;;;;;5003198;28;20100;-76
2021/08/18 07:10:06;;;;;;;0.20;0.20;;;14.50;99.90;;;;;;5009542;28;20033;-76
2021/08/18 07:12:32;;;;;;;2.25;1.08;;;14.40;99.90;;;;;;4993594;28;20405;-76
2021/08/18 07:14:57;;;;;;;0.20;0.20;;;14.50;99.90;;;;;;5011021;28;20026;-76
2021/08/18 07:17:23;;;;;;;0.20;0.20;;;14.50;99.90;;;;;;5010688;28;20041;-76
2021/08/18 07:19:49;;;;;;;0.20;0.20;;;14.80;99.90;;;;;;5010712;28;20108;-76
2021/08/18 07:22:15;;;;;;;7.00;3.25;;;14.70;99.90;;;;;;4993412;28;20111;-76
2021/08/18 07:24:40;;;;;;;2.72;1.13;;;14.70;99.90;;;;;;4992866;28;20498;-76
2021/08/18 07:27:06;;;;;;;0.20;0.20;;;14.60;99.90;;;;;;5011054;28;20034;-76
2021/08/18 07:29:32;;;;;;;0.45;0.30;;;14.50;99.90;;;;;;5010690;28;20551;-75
2021/08/18 07:31:58;;;;;;;3.42;2.03;;;14.60;99.90;;;;;;5011138;28;20478;-75
2021/08/18 07:34:23;;;;;;;0.40;0.40;;;14.70;99.90;;;;;;5009106;28;20398;-76
2021/08/18 07:36:49;;;;;;;2.63;1.98;;;14.80;99.90;;;;;;5010575;28;20453;-76
2021/08/18 07:39:16;;;;;;;0.68;0.68;;;14.70;99.90;;;;;;5009044;28;20505;-76
2021/08/18 07:41:42;;;;;;;2.72;1.80;;;14.70;99.90;;;;;;5011373;28;20482;-75
2021/08/18 07:44:07;;;;;;;3.40;3.20;;;14.50;99.90;;;;;;4993505;28;20025;-75
2021/08/18 07:46:35;;;;;;;0.25;0.25;;;14.30;99.90;;;;;;5011630;28;20030;-75
2021/08/18 07:49:00;;;;;;;2.10;1.35;;;14.40;99.90;;;;;;5009791;28;20026;-75
2021/08/18 07:51:27;;;;;;;0.20;0.20;;;14.50;99.90;;;;;;5011553;28;20100;-76
2021/08/18 07:53:53;;;;;;;0.30;0.30;;;14.50;99.90;;;;;;5009915;28;20029;-76
2021/08/18 07:56:19;;;;;;;0.20;0.20;;;14.70;99.90;;;;;;5010245;28;20034;-75
2021/08/18 07:58:46;;;;;;;0.20;0.20;;;14.60;99.90;;;;;;5011766;28;20437;-75
2021/08/18 08:01:11;;;;;;;5.38;2.67;;;14.90;99.90;;;;;;5011233;28;20079;-75
2021/08/18 08:03:37;;;;;;;9.35;3.20;;;14.90;99.90;;;;;;5010204;28;20029;-75
2021/08/18 08:06:03;;;;;;;5.18;1.95;;;14.90;99.90;;;;;;5009594;28;20493;-75
2021/08/18 08:08:29;;;;;;;0.82;0.68;;;14.90;99.90;;;;;;4993985;28;20026;-75
2021/08/18 08:10:55;;;;;;;0.50;0.50;;;14.90;99.90;;;;;;5011348;28;20061;-75
2021/08/18 08:13:21;;;;;;;0.13;0.13;;;14.90;99.90;;;;;;5011656;28;20079;-75
2021/08/18 08:15:47;;;;;;;2.45;1.15;;;15.00;99.90;;;;;;5011697;28;20034;-75
2021/08/18 08:18:12;;;;;;;0.20;0.20;;;15.10;99.90;;;;;;5009263;28;20429;-76
2021/08/18 08:20:42;;;;;;;0.55;0.55;;;15.10;99.90;;;;;;5010160;28;20077;-76
2021/08/18 08:23:08;;;;;;;0.20;0.20;;;15.10;99.90;;;;;;5009474;28;20419;-75
2021/08/18 08:25:34;;;;;;;1.38;1.27;;;15.20;99.90;;;;;;4992259;28;20175;-76
2021/08/18 08:28:00;;;;;;;0.85;0.55;;;15.40;99.90;;;;;;5010211;28;20451;-76
2021/08/18 08:30:26;;;;;;;0.28;0.28;;;15.80;99.90;;;;;;5009998;28;20041;-76
2021/08/18 08:32:52;;;;;;;0.43;0.43;;;16.20;99.90;;;;;;5008923;28;20029;-76
2021/08/18 08:35:18;;;;;;;1.10;0.90;;;16.40;99.90;;;;;;4992616;28;20025;-76
2021/08/18 08:37:43;;;;;;;7.22;0.60;;;16.50;99.90;;;;;;5009638;28;20030;-76
2021/08/18 08:40:10;;;;;;;0.10;0.10;;;16.30;99.90;;;;;;5011431;28;20026;-82
2021/08/18 08:42:38;;;;;;;2.72;1.58;;;16.10;99.90;;;;;;4993854;28;20034;-76
2021/08/18 08:45:06;;;;;;;0.50;0.50;;;16.00;99.90;;;;;;5010517;28;20367;-75
2021/08/18 08:47:34;;;;;;;3.50;1.17;;;16.10;99.90;;;;;;5011060;28;20029;-75
2021/08/18 08:50:01;;;;;;;2.33;1.80;;;16.10;99.90;;;;;;5013396;28;20132;-75
2021/08/18 08:52:27;;;;;;;1.35;0.75;;;16.10;99.90;;;;;;5013022;28;20030;-75
2021/08/18 08:54:53;;;;;;;1.65;0.93;;;16.20;99.90;;;;;;5012943;28;20034;-76
2021/08/18 08:57:18;;;;;;;0.20;0.20;;;16.30;99.90;;;;;;5013908;28;20109;-75
2021/08/18 08:59:44;;;;;;;3.80;2.75;;;16.40;99.90;;;;;;5011665;28;20481;-75
2021/08/18 09:02:12;;;;;;;0.30;0.30;;;16.50;99.90;;;;;;5013525;28;20022;-76
2021/08/18 09:04:47;;;;;;;0.20;0.20;;;16.60;99.90;;;;;;5013304;28;20124;-76
2021/08/18 09:07:20;;;;;;;0.10;0.10;;;16.70;99.90;;;;;;5011009;28;20032;-75
2021/08/18 09:10:06;;;;;;;0.43;0.43;;;16.70;99.90;;;;;;5010249;28;20445;-75
2021/08/18 09:12:34;;;;;;;0.20;0.20;;;16.90;99.90;;;;;;5010785;28;20345;-75
2021/08/18 09:15:21;;;;;;;0.10;0.10;;;17.00;99.90;;;;;;5012642;28;20033;-75
2021/08/18 09:17:53;;;;;;;0.35;0.28;;;17.20;99.90;;;;;;5011950;28;20022;-76
2021/08/18 09:20:20;;;;;;;0.10;0.10;;;16.90;99.90;;;;;;5011905;28;20104;-76
2021/08/18 09:22:49;;;;;;;7.40;3.63;;;17.00;99.90;;;;;;5013687;28;20513;-75
2021/08/18 09:25:23;;;;;;;8.68;2.88;;;17.10;99.90;;;;;;5013415;28;20033;-75
2021/08/18 09:28:13;;;;;;;1.33;1.27;;;17.10;99.90;;;;;;4991198;28;20026;-76
2021/08/18 09:30:43;;;;;;;1.42;1.33;;;17.10;99.90;;;;;;5013062;28;20029;-76
2021/08/18 09:33:18;;;;;;;2.28;1.00;;;17.20;99.90;;;;;;5013758;28;20018;-75
2021/08/18 09:35:55;;;;;;;0.10;0.10;;;17.40;99.90;;;;;;5011658;28;20030;-75
2021/08/18 09:38:21;;;;;;;0.22;0.22;;;17.50;99.90;;;;;;5008108;28;20033;-75
2021/08/18 09:40:52;;;;;;;0.20;0.20;;;17.50;99.90;;;;;;5011643;28;20038;-75
2021/08/18 09:43:24;;;;;;;8.25;3.75;;;17.60;99.90;;;;;;5012083;28;20034;-75
2021/08/18 09:46:01;;;;;;;8.18;4.65;;;17.70;99.90;;;;;;5012671;28;20609;-77
2021/08/18 09:48:31;;;;;;;5.25;1.40;;;17.70;99.90;;;;;;5011877;28;20025;-75
2021/08/18 09:51:09;;;;;;;0.30;0.30;;;17.80;99.90;;;;;;5011636;28;20042;-75
2021/08/18 09:53:39;;;;;;;1.77;1.67;;;17.80;99.90;;;;;;5008096;28;20057;-75
2021/08/18 09:56:15;;;;;;;7.10;3.38;;;18.00;99.90;;;;;;5012695;28;20072;-75
2021/08/18 09:58:48;;;;;;;2.65;1.02;;;17.90;99.90;;;;;;5011456;28;20061;-75
2021/08/18 10:01:15;;;;;;;5.22;1.67;;;18.20;99.90;;;;;;5012755;28;20105;-76
2021/08/18 10:03:42;;;;;;;3.35;1.70;;;18.10;99.90;;;;;;5013128;28;20033;-76
2021/08/18 10:06:10;;;;;;;4.93;2.45;;;18.20;99.90;;;;;;5012317;28;20117;-75
2021/08/18 10:08:37;;;;;;;0.10;0.10;;;18.00;99.90;;;;;;5012667;28;20030;-76
2021/08/18 10:11:04;;;;;;;5.13;3.10;;;18.10;99.90;;;;;;5006518;28;20052;-75
2021/08/18 10:13:31;;;;;;;2.03;1.55;;;18.20;99.90;;;;;;5011486;28;20026;-75
2021/08/18 10:15:57;;;;;;;1.60;1.50;;;18.10;99.90;;;;;;5009925;28;20034;-76
2021/08/18 10:18:38;;;;;;;2.83;1.25;;;18.20;99.90;;;;;;5010203;28;20026;-75
2021/08/18 10:21:10;;;;;;;0.13;0.13;;;18.50;99.90;;;;;;5011200;28;20072;-75
2021/08/18 10:23:51;;;;;;;5.10;2.65;;;18.50;99.90;;;;;;5011037;28;20056;-76
2021/08/18 10:26:32;;;;;;;0.22;0.22;;;18.80;99.90;;;;;;5007529;28;20018;-75
2021/08/18 10:29:01;;;;;;;0.40;0.40;;;18.90;99.90;;;;;;5012094;28;20034;-75
2021/08/18 10:34:23;;;;;;;0.45;0.45;;;18.80;99.90;;;;;;5011070;28;20030;-75
2021/08/18 10:37:01;;;;;;;2.40;1.52;;;18.60;99.90;;;;;;5011294;28;20359;-75
2021/08/18 10:39:28;;;;;;;0.20;0.20;;;18.80;99.90;;;;;;4994272;28;20029;-75
2021/08/18 10:42:11;;;;;;;0.20;0.20;;;19.30;99.20;;;;;;5009361;28;20080;-75
2021/08/18 10:44:49;;;;;;;0.30;0.30;;;19.50;98.30;;;;;;5009541;28;20373;-75
2021/08/18 10:47:28;;;;;;;3.30;1.98;;;20.10;96.50;;;;;;5008943;28;20087;-75
2021/08/18 10:49:54;;;;;;;1.58;1.48;;;20.60;93.80;;;;;;5009636;28;20065;-75
2021/08/18 10:52:40;;;;;;;0.50;0.50;;;20.60;92.60;;;;;;5011884;28;20509;-75
2021/08/18 10:55:24;;;;;;;0.10;0.10;;;20.40;93.30;;;;;;4983198;28;20088;-75
2021/08/18 10:58:03;;;;;;;6.05;2.42;;;20.40;93.50;;;;;;5011094;28;20022;-75
2021/08/18 11:00:42;;;;;;;7.10;2.50;;;20.40;93.10;;;;;;5010241;28;20049;-75
2021/08/18 11:03:09;;;;;;;5.10;2.17;;;20.00;93.10;;;;;;5010177;28;20425;-76
2021/08/18 11:05:37;;;;;;;1.00;0.98;;;19.70;93.60;;;;;;5011557;28;20017;-75
2021/08/18 11:08:18;;;;;;;0.08;0.08;;;19.70;94.00;;;;;;5011169;28;20066;-75
2021/08/18 11:10:55;;;;;;;0.38;0.38;;;20.10;92.70;;;;;;5005989;28;20037;-75
2021/08/18 11:13:44;;;;;;;0.28;0.28;;;20.50;92.30;;;;;;5009927;28;20022;-75
2021/08/18 11:16:26;;;;;;;8.23;1.60;;;21.00;91.10;;;;;;5011581;28;20053;-75
2021/08/18 11:18:51;;;;;;;6.00;1.23;;;20.00;90.80;;;;;;4993247;28;20116;-75
2021/08/18 11:21:20;;;;;;;2.03;0.20;;;19.80;92.50;;;;;;5011245;28;20221;-75
2021/08/18 11:23:58;;;;;;;4.70;1.63;;;20.60;91.80;;;;;;5009524;28;20512;-75
2021/08/18 11:26:26;;;;;;;0.88;0.88;;;20.60;90.80;;;;;;5005528;28;20501;-75
2021/08/18 11:28:59;;;;;;;1.15;1.10;;;20.40;91.50;;;;;;5009595;28;20067;-75
2021/08/18 11:31:51;;;;;;;0.13;0.13;;;20.60;92.40;;;;;;5011490;28;20037;-75
2021/08/18 11:34:19;;;;;;;;;;;21.60;88.60;;;;;;5011577;28;20548;-75
2021/08/18 11:36:46;;;;;;;0.55;0.55;;;22.40;84.40;;;;;;5011359;28;19916;-75
2021/08/18 11:39:11;;;;;;;3.53;1.33;;;22.80;81.50;;;;;;5009264;28;20053;-75
2021/08/18 11:41:43;;;;;;;1.17;1.00;;;22.30;79.40;;;;;;5010133;28;20061;-75
2021/08/18 11:44:16;;;;;;;0.95;0.68;;;21.70;79.90;;;;;;5008800;28;20022;-75
2021/08/18 11:46:42;;;;;;;6.20;2.03;;;21.30;81.40;;;;;;4993674;28;20108;-75
2021/08/18 11:49:09;;;;;;;0.82;0.80;;;20.60;83.70;;;;;;5009142;28;20117;-75
2021/08/18 11:51:36;;;;;;;0.08;0.08;;;20.00;87.70;;;;;;5011282;28;20421;-75
2021/08/18 11:54:03;;;;;;;1.45;0.50;;;20.10;90.50;;;;;;5009404;28;20478;-75
2021/08/18 11:56:30;;;;;;;0.35;0.35;;;20.30;88.40;;;;;;5010011;28;20064;-75
2021/08/18 11:59:01;;;;;;;0.10;0.10;;;20.70;89.00;;;;;;5009463;28;20389;-75
2021/08/18 12:01:28;;;;;;;0.40;0.40;;;20.80;86.80;;;;;;5004849;28;20017;-76
2021/08/18 12:03:54;;;;;;;0.10;0.10;;;20.70;86.20;;;;;;5007600;28;20273;-74
2021/08/18 12:06:31;;;;;;;0.45;0.45;;;21.30;86.80;;;;;;5010729;28;20072;-75
2021/08/18 12:08:58;;;;;;;0.90;0.88;;;21.90;82.10;;;;;;5008568;28;20022;-75
2021/08/18 12:11:32;;;;;;;0.50;0.50;;;21.60;81.10;;;;;;5009329;28;20036;-75
2021/08/18 12:14:10;;;;;;;0.55;0.55;;;21.40;80.80;;;;;;5008926;28;20030;-75
2021/08/18 12:16:36;;;;;;;0.20;0.20;;;21.50;82.00;;;;;;5010390;28;20065;-75
2021/08/18 12:19:24;;;;;;;0.50;0.40;;;21.70;80.30;;;;;;5008281;28;20481;-75
2021/08/18 12:22:05;;;;;;;1.02;0.20;;;21.60;77.30;;;;;;5008916;28;20018;-75
2021/08/18 12:24:31;;;;;;;0.20;0.20;;;21.90;78.20;;;;;;4995926;28;20383;-75
2021/08/18 12:27:06;;;;;;;0.68;0.68;;;21.60;75.60;;;;;;5014365;28;20470;-75
2021/08/18 12:29:33;;;;;;;6.68;2.28;;;21.50;76.60;;;;;;5014016;28;20030;-75
2021/08/18 12:32:07;;;;;;;1.27;0.82;;;21.30;76.90;;;;;;5013075;28;20159;-75
2021/08/18 12:34:58;;;;;;;0.43;0.43;;;21.20;78.40;;;;;;5014011;28;20114;-74
2021/08/18 12:37:35;;;;;;;2.08;0.93;;;21.00;79.30;;;;;;5012889;28;20029;-75
2021/08/18 12:40:07;;;;;;;4.65;0.90;;;20.90;79.50;;;;;;5012565;28;20026;-75
2021/08/18 12:42:38;;;;;;;0.10;0.10;;;20.70;81.10;;;;;;5013795;28;20481;-76
2021/08/18 12:45:26;;;;;;;3.95;1.23;;;21.00;81.00;;;;;;4996115;28;20036;-75
2021/08/18 12:47:52;;;;;;;0.10;0.10;;;21.10;80.80;;;;;;4996441;28;20029;-76
2021/08/18 12:50:36;;;;;;;0.40;0.30;;;21.30;80.30;;;;;;5013503;28;20038;-75
2021/08/18 12:53:07;;;;;;;0.15;0.15;;;20.70;81.30;;;;;;5009683;28;20025;-76
2021/08/18 12:55:33;;;;;;;;;;;21.00;81.60;;;;;;5013396;28;20036;-75
2021/08/18 12:57:59;;;;;;;2.83;1.98;;;21.30;80.40;;;;;;5012723;28;19905;-76